Hauptseite
METAR-TAF:

METAR-TAF

Flughäfen :

F.D. Roosevelt Airport

Sint Eustatius, Niederländische Antillen

Breite: 17-29N, Länge: 062-59W, Höhe: 38 m

Beobachtung

Neuester Wetterbericht von vor 32 Minuten, um 08:55 UTC
Wind 6 kt aus Ost/Südost, variierte zwischen Nord/Nordost und Süd/Südost
Temperatur 27°C
Luftfeuchtigkeit 84%
Luftdruck 1013 hPa

METAR: TNCE 210855Z AUTO 11006KT 030V160 //// // ///////// 27/24 Q1013 RE//

Zeit: 05:27 (09:27 UTC)


TAF: fehlend

Wetterbeobachtungen und Prognosen von mehr als 4000 Flughäfen (METAR und TAF Bericht).

Die verfügbaren Stationen werden durch gelbe und rote Markierungen auf der Karte dargestellt.

Führen Sie die Maus auf sie, um den Namen der Station zu sehen.

Darauf klicken, um die Beobachtung von Wetterbeobachtungen und Prognosen zu sehen.

Um die Karte zu ändern : klicken Sie auf den grünen Tasten mit einem schwarzen Kreuz Zum Vergrößern, auf den grünen Button mit einem Gedankenstrich zu verkleinern, oder auf die grünen Pfeile für benachbarte Karten.


METAR-TAF: